createdAt,value
2023-01-07T00:00:40.221Z,0.00
2023-01-07T00:01:39.899Z,0.00
2023-01-07T00:02:40.129Z,0.00
2023-01-07T00:03:40.192Z,0.00
2023-01-07T00:04:39.920Z,0.00
2023-01-07T00:05:40.007Z,0.00
2023-01-07T00:06:39.856Z,0.00
2023-01-07T00:07:40.027Z,0.00
2023-01-07T00:08:39.916Z,0.00
2023-01-07T00:09:39.941Z,0.00
2023-01-07T00:10:39.827Z,0.00
2023-01-07T00:11:40.071Z,0.00
2023-01-07T00:12:39.773Z,0.00
2023-01-07T00:13:39.973Z,0.00
2023-01-07T00:14:39.786Z,0.00
2023-01-07T00:15:40.006Z,0.00
2023-01-07T00:16:39.749Z,0.00
2023-01-07T00:17:39.897Z,0.00
2023-01-07T00:18:39.749Z,0.00
2023-01-07T00:19:39.811Z,0.00
2023-01-07T00:20:39.717Z,0.00
2023-01-07T00:21:39.818Z,0.00
2023-01-07T00:22:39.668Z,0.00
2023-01-07T00:23:39.841Z,0.00
2023-01-07T00:24:39.816Z,0.00
2023-01-07T00:25:39.578Z,0.00
2023-01-07T00:26:39.928Z,0.00
2023-01-07T00:27:39.611Z,0.00
2023-01-07T00:28:39.786Z,0.00
2023-01-07T00:29:39.532Z,0.00
2023-01-07T00:30:39.802Z,0.00
2023-01-07T00:31:39.626Z,0.00
2023-01-07T00:32:39.727Z,0.00
2023-01-07T00:33:39.493Z,0.00
2023-01-07T00:34:40.753Z,0.00
2023-01-07T00:35:39.456Z,0.00
2023-01-07T00:36:40.667Z,0.00
2023-01-07T00:37:39.455Z,0.00
2023-01-07T00:38:39.689Z,0.00
2023-01-07T00:39:41.302Z,0.00
2023-01-07T00:40:40.587Z,0.00
2023-01-07T00:41:39.421Z,0.00
2023-01-07T00:42:39.626Z,0.00
2023-01-07T00:43:39.380Z,0.00
2023-01-07T00:44:39.601Z,0.00
2023-01-07T00:45:41.626Z,0.00
2023-01-07T00:46:39.365Z,0.00
2023-01-07T00:47:39.485Z,0.00
2023-01-07T00:48:39.361Z,0.00
2023-01-07T00:49:41.568Z,0.00
2023-01-07T00:50:39.442Z,0.00
2023-01-07T00:51:39.250Z,0.00
2023-01-07T00:52:39.483Z,0.00
2023-01-07T00:53:39.214Z,0.00
2023-01-07T00:54:39.370Z,0.00
2023-01-07T00:55:39.196Z,0.00
2023-01-07T00:56:39.456Z,0.00
2023-01-07T00:57:39.216Z,0.00
2023-01-07T00:58:41.475Z,0.00
2023-01-07T00:59:39.131Z,0.00
2023-01-07T01:00:39.457Z,0.00
2023-01-07T01:01:39.308Z,0.00
2023-01-07T01:02:40.413Z,0.00
2023-01-07T01:03:39.106Z,0.00
2023-01-07T01:04:39.360Z,0.00
2023-01-07T01:05:39.073Z,0.00
2023-01-07T01:06:41.279Z,0.00
2023-01-07T01:07:39.037Z,0.00
2023-01-07T01:08:41.291Z,0.00
2023-01-07T01:09:39.044Z,0.00
2023-01-07T01:10:40.200Z,0.00
2023-01-07T01:11:39.137Z,0.00
2023-01-07T01:12:38.995Z,0.00
2023-01-07T01:13:40.310Z,0.00
2023-01-07T01:14:39.041Z,0.00
2023-01-07T01:15:39.208Z,0.00
2023-01-07T01:16:39.098Z,0.00
2023-01-07T01:17:40.189Z,0.00
2023-01-07T01:18:38.923Z,0.00
2023-01-07T01:19:39.020Z,0.00
2023-01-07T01:20:38.934Z,0.00
2023-01-07T01:21:39.153Z,0.00
2023-01-07T01:22:38.866Z,0.00
2023-01-07T01:23:39.094Z,0.00
2023-01-07T01:24:38.856Z,0.00
2023-01-07T01:25:39.079Z,0.00
2023-01-07T01:26:38.854Z,0.00
2023-01-07T01:27:38.945Z,0.00
2023-01-07T01:28:38.842Z,0.00
2023-01-07T01:29:38.971Z,0.00
2023-01-07T01:30:38.787Z,0.00
2023-01-07T01:31:39.038Z,0.00
2023-01-07T01:32:38.747Z,0.00
2023-01-07T01:33:38.886Z,0.00
2023-01-07T01:34:38.717Z,0.00
2023-01-07T01:35:39.003Z,0.00
2023-01-07T01:36:38.778Z,0.00
2023-01-07T01:37:38.734Z,0.00
2023-01-07T01:38:38.673Z,0.00
2023-01-07T01:39:39.011Z,0.00
2023-01-07T01:40:38.654Z,0.00
2023-01-07T01:41:38.737Z,0.00
2023-01-07T01:42:38.607Z,0.00
2023-01-07T01:43:38.756Z,0.00
2023-01-07T01:44:53.583Z,0.00
2023-01-07T01:45:38.711Z,0.00
2023-01-07T01:46:38.582Z,0.00
2023-01-07T01:47:38.797Z,0.00
2023-01-07T01:48:38.545Z,0.00
2023-01-07T01:49:38.702Z,0.00
2023-01-07T01:50:38.544Z,0.00
2023-01-07T01:51:38.553Z,0.00
2023-01-07T01:52:38.505Z,0.00
2023-01-07T01:53:38.749Z,0.00
2023-01-07T01:54:38.484Z,0.00
2023-01-07T01:55:38.756Z,0.00
2023-01-07T01:56:38.425Z,0.00
2023-01-07T01:57:38.663Z,0.00
2023-01-07T01:58:38.618Z,0.00
2023-01-07T01:59:38.381Z,0.00
2023-01-07T02:00:38.686Z,0.00
2023-01-07T02:01:38.644Z,0.00
2023-01-07T02:02:38.658Z,0.00
2023-01-07T02:03:38.346Z,0.00
2023-01-07T02:04:38.407Z,0.00
2023-01-07T02:05:40.410Z,0.00
2023-01-07T02:06:38.541Z,0.00
2023-01-07T02:07:38.273Z,0.00
2023-01-07T02:08:38.392Z,0.00
2023-01-07T02:09:38.251Z,0.00
2023-01-07T02:10:39.352Z,0.00
2023-01-07T02:11:38.226Z,0.00
2023-01-07T02:12:38.389Z,0.00
2023-01-07T02:13:38.198Z,0.00
2023-01-07T02:14:38.371Z,0.00
2023-01-07T02:15:38.260Z,0.00
2023-01-07T02:16:38.321Z,0.00
2023-01-07T02:17:38.156Z,0.00
2023-01-07T02:18:38.209Z,0.00
2023-01-07T02:19:38.200Z,0.00
2023-01-07T02:20:38.093Z,0.00
2023-01-07T02:21:38.270Z,0.00
2023-01-07T02:22:38.075Z,0.00
2023-01-07T02:23:38.235Z,0.00
2023-01-07T02:24:38.064Z,0.00
2023-01-07T02:25:38.248Z,0.00
2023-01-07T02:26:38.065Z,0.00
2023-01-07T02:27:38.106Z,0.00
2023-01-07T02:28:37.983Z,0.00
2023-01-07T02:29:38.074Z,0.00
2023-01-07T02:30:37.982Z,0.00
2023-01-07T02:31:38.207Z,0.00
2023-01-07T02:32:37.946Z,0.00
2023-01-07T02:33:38.033Z,0.00
2023-01-07T02:34:37.906Z,0.00
2023-01-07T02:35:38.113Z,0.00
2023-01-07T02:36:37.890Z,0.00
2023-01-07T02:37:38.086Z,0.00
2023-01-07T02:38:37.875Z,0.00
2023-01-07T02:39:37.942Z,0.00
2023-01-07T02:40:37.926Z,0.00
2023-01-07T02:41:37.850Z,0.00
2023-01-07T02:42:37.982Z,0.00
2023-01-07T02:43:37.831Z,0.00
2023-01-07T02:44:37.962Z,0.00
2023-01-07T02:45:37.815Z,0.00
2023-01-07T02:46:37.858Z,0.00
2023-01-07T02:47:37.793Z,0.00
2023-01-07T02:48:37.925Z,0.00
2023-01-07T02:49:37.743Z,0.00
2023-01-07T02:50:37.934Z,0.00
2023-01-07T02:51:37.723Z,0.00
2023-01-07T02:52:37.911Z,0.00
2023-01-07T02:53:37.725Z,0.00
2023-01-07T02:54:37.848Z,0.00
2023-01-07T02:55:37.659Z,0.00
2023-01-07T02:56:37.848Z,0.00
2023-01-07T02:57:37.647Z,0.00
2023-01-07T02:58:38.872Z,0.00
2023-01-07T02:59:37.653Z,0.00
2023-01-07T03:00:37.788Z,0.00
2023-01-07T03:01:37.810Z,0.00
2023-01-07T03:02:37.571Z,0.00
2023-01-07T03:03:37.596Z,0.00
2023-01-07T03:04:37.547Z,0.00
2023-01-07T03:05:37.608Z,0.00
2023-01-07T03:06:37.728Z,0.00
2023-01-07T03:07:37.521Z,0.00
2023-01-07T03:08:37.513Z,0.00
2023-01-07T03:09:37.520Z,0.00
2023-01-07T03:10:37.514Z,0.00
2023-01-07T03:11:37.502Z,0.00
2023-01-07T03:12:37.632Z,0.00
2023-01-07T03:13:37.425Z,0.00
2023-01-07T03:14:37.451Z,0.00
2023-01-07T03:15:37.408Z,0.00
2023-01-07T03:16:37.552Z,0.00
2023-01-07T03:17:37.407Z,0.00
2023-01-07T03:18:37.548Z,0.00
2023-01-07T03:19:37.365Z,0.00
2023-01-07T03:20:37.498Z,0.00
2023-01-07T03:21:37.331Z,0.00
2023-01-07T03:22:37.458Z,0.00
2023-01-07T03:23:37.315Z,0.00
2023-01-07T03:24:38.365Z,0.00
2023-01-07T03:25:37.272Z,0.00
2023-01-07T03:26:37.306Z,0.00
2023-01-07T03:27:37.403Z,0.00
2023-01-07T03:28:37.216Z,0.00
2023-01-07T03:29:37.361Z,0.00
2023-01-07T03:30:37.194Z,0.00
2023-01-07T03:31:37.305Z,0.00
2023-01-07T03:32:37.259Z,0.00
2023-01-07T03:33:37.188Z,0.00
2023-01-07T03:34:37.289Z,0.00
2023-01-07T03:35:37.146Z,0.00
2023-01-07T03:36:37.222Z,0.00
2023-01-07T03:37:37.159Z,0.00
2023-01-07T03:38:37.320Z,0.00
2023-01-07T03:39:37.134Z,0.00
2023-01-07T03:40:37.109Z,0.00
2023-01-07T03:41:37.095Z,0.00
2023-01-07T03:42:37.142Z,0.00
2023-01-07T03:43:37.067Z,0.00
2023-01-07T03:44:37.087Z,0.00
2023-01-07T03:45:37.091Z,0.00
2023-01-07T03:46:37.049Z,0.00
2023-01-07T03:47:37.006Z,0.00
2023-01-07T03:48:37.171Z,0.00
2023-01-07T03:49:37.071Z,0.00
2023-01-07T03:50:37.125Z,0.00
2023-01-07T03:51:36.948Z,0.00
2023-01-07T03:52:37.104Z,0.00
2023-01-07T03:53:37.124Z,0.00
2023-01-07T03:54:36.873Z,0.00
2023-01-07T03:55:36.970Z,0.00
2023-01-07T03:56:36.846Z,0.00
2023-01-07T03:57:36.947Z,0.00
2023-01-07T03:58:36.829Z,0.00
2023-01-07T03:59:36.955Z,0.00
2023-01-07T04:00:36.843Z,0.00
2023-01-07T04:01:37.200Z,0.00
2023-01-07T04:02:36.782Z,0.00
2023-01-07T04:03:36.976Z,0.00
2023-01-07T04:04:36.891Z,0.00
2023-01-07T04:05:36.903Z,0.00
2023-01-07T04:06:36.770Z,0.00
2023-01-07T04:07:36.853Z,0.00
2023-01-07T04:08:36.710Z,0.00
2023-01-07T04:09:36.831Z,0.00
2023-01-07T04:10:36.727Z,0.00
2023-01-07T04:11:36.898Z,0.00
2023-01-07T04:12:36.648Z,0.00
2023-01-07T04:13:36.851Z,0.00
2023-01-07T04:14:36.842Z,0.00
2023-01-07T04:15:36.645Z,0.00
2023-01-07T04:16:36.755Z,0.00
2023-01-07T04:17:36.635Z,0.00
2023-01-07T04:18:36.670Z,0.00
2023-01-07T04:19:36.584Z,0.00
2023-01-07T04:20:36.714Z,0.00
2023-01-07T04:21:36.588Z,0.00
2023-01-07T04:22:36.637Z,0.00
2023-01-07T04:23:36.564Z,0.00
2023-01-07T04:24:36.601Z,0.00
2023-01-07T04:25:36.504Z,0.00
2023-01-07T04:26:36.637Z,0.00
2023-01-07T04:27:36.491Z,0.00
2023-01-07T04:28:36.677Z,0.00
2023-01-07T04:29:36.456Z,0.00
2023-01-07T04:30:36.574Z,0.00
2023-01-07T04:31:36.428Z,0.00
2023-01-07T04:32:36.478Z,0.00
2023-01-07T04:33:36.442Z,0.00
2023-01-07T04:34:36.576Z,0.00
2023-01-07T04:35:36.592Z,0.00
2023-01-07T04:36:36.356Z,0.00
2023-01-07T04:37:36.417Z,0.00
2023-01-07T04:38:36.343Z,0.00
2023-01-07T04:39:36.519Z,0.00
2023-01-07T04:40:36.291Z,0.00
2023-01-07T04:41:36.345Z,0.00
2023-01-07T04:42:36.274Z,0.00
2023-01-07T04:43:36.355Z,0.00
2023-01-07T04:44:36.236Z,0.00
2023-01-07T04:45:36.359Z,0.00
2023-01-07T04:46:36.249Z,0.00
2023-01-07T04:47:36.283Z,0.00
2023-01-07T04:48:36.225Z,0.00
2023-01-07T04:49:36.297Z,0.00
2023-01-07T04:50:36.162Z,0.00
2023-01-07T04:51:36.404Z,0.00
2023-01-07T04:52:36.134Z,0.00
2023-01-07T04:53:36.217Z,0.00
2023-01-07T04:54:36.150Z,0.00
2023-01-07T04:55:36.232Z,0.00
2023-01-07T04:56:36.118Z,0.00
2023-01-07T04:57:36.088Z,0.00
2023-01-07T04:58:36.126Z,0.00
2023-01-07T04:59:36.102Z,0.00
2023-01-07T05:00:36.155Z,0.00
2023-01-07T05:01:36.213Z,0.00
2023-01-07T05:02:36.185Z,0.00
2023-01-07T05:03:36.038Z,0.00
2023-01-07T05:04:36.288Z,0.00
2023-01-07T05:05:35.994Z,0.00
2023-01-07T05:06:36.199Z,0.00
2023-01-07T05:07:35.976Z,0.00
2023-01-07T05:08:35.998Z,0.00
2023-01-07T05:09:35.945Z,0.00
2023-01-07T05:10:36.055Z,0.00
2023-01-07T05:11:35.952Z,0.00
2023-01-07T05:12:35.965Z,0.00
2023-01-07T05:13:35.882Z,0.00
2023-01-07T05:14:35.950Z,0.00
2023-01-07T05:15:35.880Z,0.00
2023-01-07T05:16:35.984Z,0.00
2023-01-07T05:17:35.916Z,0.00
2023-01-07T05:18:35.809Z,0.00
2023-01-07T05:19:35.880Z,0.00
2023-01-07T05:20:35.776Z,0.00
2023-01-07T05:21:35.894Z,0.00
2023-01-07T05:22:35.766Z,0.00
2023-01-07T05:23:35.769Z,0.00
2023-01-07T05:24:35.954Z,0.00
2023-01-07T05:25:35.728Z,0.00
2023-01-07T05:26:35.945Z,0.00
2023-01-07T05:27:35.721Z,0.00
2023-01-07T05:28:35.833Z,0.00
2023-01-07T05:29:35.724Z,0.00
2023-01-07T05:30:35.915Z,0.00
2023-01-07T05:31:35.654Z,0.00
2023-01-07T05:32:35.895Z,0.00
2023-01-07T05:33:35.675Z,0.00
2023-01-07T05:34:35.766Z,0.00
2023-01-07T05:35:35.609Z,0.00
2023-01-07T05:36:36.859Z,0.00
2023-01-07T05:37:35.580Z,0.00
2023-01-07T05:38:35.692Z,0.00
2023-01-07T05:39:35.590Z,0.00
2023-01-07T05:40:35.719Z,0.00
2023-01-07T05:41:35.556Z,0.00
2023-01-07T05:42:35.730Z,0.00
2023-01-07T05:43:35.757Z,0.00
2023-01-07T05:44:35.466Z,0.00
2023-01-07T05:45:35.556Z,0.00
2023-01-07T05:46:35.446Z,0.00
2023-01-07T05:47:35.611Z,0.00
2023-01-07T05:48:35.425Z,0.00
2023-01-07T05:49:35.597Z,0.00
2023-01-07T05:50:35.414Z,0.00
2023-01-07T05:51:35.507Z,0.00
2023-01-07T05:52:35.435Z,0.00
2023-01-07T05:53:35.634Z,0.00
2023-01-07T05:54:35.688Z,0.00
2023-01-07T05:55:35.535Z,0.00
2023-01-07T05:56:35.365Z,0.00
2023-01-07T05:57:35.459Z,0.00
2023-01-07T05:58:35.300Z,0.00
2023-01-07T05:59:35.457Z,0.00
2023-01-07T06:00:35.395Z,0.00
2023-01-07T06:01:35.604Z,0.00
2023-01-07T06:02:35.265Z,0.00
2023-01-07T06:03:35.755Z,0.00
2023-01-07T06:04:35.391Z,0.00
2023-01-07T06:05:35.378Z,0.00
2023-01-07T06:06:35.351Z,0.00
2023-01-07T06:07:35.433Z,0.00
2023-01-07T06:08:35.332Z,0.00
2023-01-07T06:09:35.265Z,0.00
2023-01-07T06:10:35.265Z,0.00
2023-01-07T06:11:35.167Z,0.00
2023-01-07T06:12:35.377Z,0.00
2023-01-07T06:13:35.122Z,0.00
2023-01-07T06:14:35.138Z,0.00
2023-01-07T06:15:35.124Z,0.00
2023-01-07T06:16:35.200Z,0.00
2023-01-07T06:17:35.077Z,0.00
2023-01-07T06:18:35.178Z,0.00
2023-01-07T06:19:35.042Z,0.00
2023-01-07T06:20:35.073Z,0.00
2023-01-07T06:21:35.047Z,0.00
2023-01-07T06:22:35.232Z,0.00
2023-01-07T06:23:35.144Z,0.00
2023-01-07T06:24:35.256Z,0.00
2023-01-07T06:25:35.160Z,0.00
2023-01-07T06:26:34.951Z,0.00
2023-01-07T06:27:35.178Z,0.00
2023-01-07T06:28:34.985Z,0.00
2023-01-07T06:29:35.041Z,0.00
2023-01-07T06:30:35.231Z,0.00
2023-01-07T06:31:35.228Z,0.00
2023-01-07T06:32:35.058Z,0.00
2023-01-07T06:33:35.105Z,0.00
2023-01-07T06:34:34.928Z,0.00
2023-01-07T06:35:34.957Z,0.00
2023-01-07T06:36:34.833Z,0.00
2023-01-07T06:37:34.910Z,0.00
2023-01-07T06:38:34.786Z,0.00
2023-01-07T06:39:35.101Z,0.00
2023-01-07T06:40:34.844Z,0.00
2023-01-07T06:41:35.324Z,0.00
2023-01-07T06:42:34.947Z,0.00
2023-01-07T06:43:35.205Z,0.00
2023-01-07T06:44:34.812Z,0.00
2023-01-07T06:45:34.751Z,0.00
2023-01-07T06:46:34.814Z,0.00
2023-01-07T06:47:34.917Z,0.00
2023-01-07T06:48:34.696Z,0.00
2023-01-07T06:49:34.853Z,0.00
2023-01-07T06:50:35.022Z,0.00
2023-01-07T06:51:34.816Z,0.00
2023-01-07T06:52:34.648Z,0.00
2023-01-07T06:53:34.971Z,0.00
2023-01-07T06:54:34.718Z,0.00
2023-01-07T06:55:34.871Z,4.00
2023-01-07T06:56:34.563Z,4.00
2023-01-07T06:57:34.748Z,0.00
2023-01-07T06:58:34.536Z,0.00
2023-01-07T06:59:34.850Z,4.00
2023-01-07T07:00:35.134Z,4.00
2023-01-07T07:01:34.800Z,8.00
2023-01-07T07:02:35.514Z,4.00
2023-01-07T07:03:34.699Z,4.00
2023-01-07T07:04:34.845Z,8.00
2023-01-07T07:05:34.614Z,4.00
2023-01-07T07:06:35.045Z,8.00
2023-01-07T07:07:34.931Z,8.00
2023-01-07T07:08:34.565Z,8.00
2023-01-07T07:09:34.553Z,12.00
2023-01-07T07:10:34.468Z,12.00
2023-01-07T07:11:34.515Z,8.00
2023-01-07T07:12:34.479Z,12.00
2023-01-07T07:13:34.332Z,16.00
2023-01-07T07:14:34.468Z,16.00
2023-01-07T07:15:34.298Z,20.00
2023-01-07T07:16:34.594Z,24.00
2023-01-07T07:17:34.316Z,24.00
2023-01-07T07:18:34.624Z,28.00
2023-01-07T07:19:34.244Z,28.00
2023-01-07T07:20:34.589Z,32.00
2023-01-07T07:21:34.258Z,32.00
2023-01-07T07:22:34.628Z,36.00
2023-01-07T07:23:34.520Z,40.00
2023-01-07T07:24:34.483Z,40.00
2023-01-07T07:25:34.245Z,44.00
2023-01-07T07:26:34.330Z,48.00
2023-01-07T07:27:34.161Z,52.00
2023-01-07T07:28:34.276Z,56.00
2023-01-07T07:29:34.226Z,56.00
2023-01-07T07:30:45.451Z,60.00
2023-01-07T07:31:34.312Z,64.00
2023-01-07T07:32:34.759Z,64.00
2023-01-07T07:33:34.752Z,68.00
2023-01-07T07:34:35.941Z,72.00
2023-01-07T07:35:34.515Z,76.00
2023-01-07T07:36:34.176Z,88.00
2023-01-07T07:37:34.171Z,96.00
2023-01-07T07:38:34.434Z,100.00
2023-01-07T07:39:34.322Z,104.00
2023-01-07T07:40:34.755Z,112.00
2023-01-07T07:41:34.245Z,116.00
2023-01-07T07:43:10.752Z,124.00
2023-01-07T07:43:33.951Z,128.00
2023-01-07T07:44:34.999Z,136.00
2023-01-07T07:45:33.958Z,148.00
2023-01-07T07:46:34.239Z,148.00
2023-01-07T07:47:34.013Z,152.00
2023-01-07T07:48:34.062Z,160.00
2023-01-07T07:49:34.019Z,160.00
2023-01-07T07:50:34.939Z,164.00
2023-01-07T07:51:34.493Z,168.00
2023-01-07T07:52:34.204Z,180.00
2023-01-07T07:53:34.303Z,192.00
2023-01-07T07:54:34.850Z,204.00
2023-01-07T07:55:33.999Z,216.00
2023-01-07T07:56:34.362Z,220.00
2023-01-07T07:57:34.401Z,220.00
2023-01-07T07:58:34.213Z,232.00
2023-01-07T07:59:34.580Z,236.00
2023-01-07T08:00:35.065Z,240.00
2023-01-07T08:01:37.067Z,256.00
2023-01-07T08:02:34.301Z,288.00
2023-01-07T08:03:34.321Z,316.00
2023-01-07T08:04:35.082Z,304.00
2023-01-07T08:05:34.205Z,304.00
2023-01-07T08:06:34.024Z,296.00
2023-01-07T08:07:35.239Z,296.00
2023-01-07T08:08:33.987Z,320.00
2023-01-07T08:09:34.079Z,336.00
2023-01-07T08:10:35.112Z,352.00
2023-01-07T08:11:34.015Z,372.00
2023-01-07T08:12:34.050Z,396.00
2023-01-07T08:13:34.200Z,396.00
2023-01-07T08:14:33.971Z,396.00
2023-01-07T08:15:33.932Z,408.00
2023-01-07T08:16:34.732Z,460.00
2023-01-07T08:17:34.725Z,468.00
2023-01-07T08:18:33.747Z,456.00
2023-01-07T08:19:33.544Z,456.00
2023-01-07T08:20:33.465Z,444.00
2023-01-07T08:21:33.674Z,428.00
2023-01-07T08:22:33.541Z,420.00
2023-01-07T08:23:33.582Z,424.00
2023-01-07T08:24:33.474Z,452.00
2023-01-07T08:25:34.532Z,468.00
2023-01-07T08:26:33.389Z,404.00
2023-01-07T08:27:33.507Z,400.00
2023-01-07T08:28:33.395Z,432.00
2023-01-07T08:29:33.396Z,488.00
2023-01-07T08:30:33.338Z,496.00
2023-01-07T08:31:33.536Z,484.00
2023-01-07T08:32:33.385Z,508.00
2023-01-07T08:33:35.597Z,528.00
2023-01-07T08:34:33.300Z,544.00
2023-01-07T08:35:34.378Z,556.00
2023-01-07T08:36:33.320Z,572.00
2023-01-07T08:37:33.530Z,568.00
2023-01-07T08:38:33.258Z,548.00
2023-01-07T08:39:34.567Z,552.00
2023-01-07T08:40:33.295Z,556.00
2023-01-07T08:41:33.297Z,540.00
2023-01-07T08:42:33.217Z,512.00
2023-01-07T08:43:33.413Z,480.00
2023-01-07T08:44:33.211Z,468.00
2023-01-07T08:45:33.232Z,500.00
2023-01-07T08:46:33.178Z,532.00
2023-01-07T08:47:33.327Z,556.00
2023-01-07T08:48:33.110Z,588.00
2023-01-07T08:49:33.382Z,604.00
2023-01-07T08:50:33.152Z,612.00
2023-01-07T08:51:33.267Z,600.00
2023-01-07T08:52:33.057Z,572.00
2023-01-07T08:53:33.184Z,548.00
2023-01-07T08:54:33.218Z,524.00
2023-01-07T08:55:33.179Z,516.00
2023-01-07T08:56:33.077Z,500.00
2023-01-07T08:57:33.209Z,492.00
2023-01-07T08:58:33.003Z,496.00
2023-01-07T08:59:33.131Z,520.00
2023-01-07T09:00:32.969Z,544.00
2023-01-07T09:01:33.310Z,580.00
2023-01-07T09:02:33.132Z,624.00
2023-01-07T09:03:32.920Z,636.00
2023-01-07T09:04:33.162Z,620.00
2023-01-07T09:05:35.151Z,644.00
2023-01-07T09:06:33.277Z,668.00
2023-01-07T09:07:32.856Z,660.00
2023-01-07T09:08:32.985Z,672.00
2023-01-07T09:09:32.849Z,652.00
2023-01-07T09:10:33.229Z,620.00
2023-01-07T09:11:32.798Z,616.00
2023-01-07T09:12:32.972Z,620.00
2023-01-07T09:13:32.787Z,636.00
2023-01-07T09:14:32.932Z,656.00
2023-01-07T09:15:32.751Z,672.00
2023-01-07T09:16:33.057Z,712.00
2023-01-07T09:17:32.734Z,736.00
2023-01-07T09:18:33.953Z,720.00
2023-01-07T09:19:32.706Z,720.00
2023-01-07T09:20:33.012Z,732.00
2023-01-07T09:21:32.739Z,712.00
2023-01-07T09:22:32.884Z,664.00
2023-01-07T09:23:32.825Z,616.00
2023-01-07T09:24:32.699Z,616.00
2023-01-07T09:25:32.787Z,664.00
2023-01-07T09:26:32.649Z,712.00
2023-01-07T09:27:32.804Z,756.00
2023-01-07T09:28:32.824Z,732.00
2023-01-07T09:29:33.593Z,764.00
2023-01-07T09:30:32.840Z,788.00
2023-01-07T09:31:32.580Z,784.00
2023-01-07T09:32:32.745Z,776.00
2023-01-07T09:33:32.545Z,800.00
2023-01-07T09:34:32.659Z,824.00
2023-01-07T09:35:32.548Z,840.00
2023-01-07T09:36:32.639Z,872.00
2023-01-07T09:37:32.460Z,924.00
2023-01-07T09:38:32.585Z,1016.00
2023-01-07T09:39:32.439Z,1148.00
2023-01-07T09:40:32.594Z,1136.00
2023-01-07T09:41:32.826Z,1096.00
2023-01-07T09:42:33.987Z,996.00
2023-01-07T09:43:58.750Z,1008.00
2023-01-07T09:44:32.608Z,1044.00
2023-01-07T09:45:32.467Z,1200.00
2023-01-07T09:46:32.562Z,1392.00
2023-01-07T09:47:32.333Z,1444.00
2023-01-07T09:48:32.561Z,1448.00
2023-01-07T09:49:32.597Z,1684.00
2023-01-07T09:50:32.379Z,2520.00
2023-01-07T09:51:32.399Z,4172.00
2023-01-07T09:52:32.351Z,6176.00
2023-01-07T09:53:33.092Z,6444.00
2023-01-07T09:54:33.255Z,4904.00
2023-01-07T09:55:32.981Z,4740.00
2023-01-07T09:56:33.353Z,5308.00
2023-01-07T09:57:32.791Z,5720.00
2023-01-07T09:58:33.284Z,6492.00
2023-01-07T09:59:32.740Z,5976.00
2023-01-07T10:00:33.355Z,5688.00
2023-01-07T10:01:33.745Z,8744.00
2023-01-07T10:02:32.443Z,8464.00
2023-01-07T10:03:32.567Z,16416.00
2023-01-07T10:04:32.263Z,27136.00
2023-01-07T10:05:32.506Z,36512.00
2023-01-07T10:06:43.086Z,44480.00
2023-01-07T10:07:32.151Z,30784.00
2023-01-07T10:08:32.574Z,22400.00
2023-01-07T10:09:32.468Z,62528.00
2023-01-07T10:10:32.364Z,64704.00
2023-01-07T10:11:32.018Z,65632.00
2023-01-07T10:12:33.337Z,35488.00
2023-01-07T10:13:31.991Z,47840.00
2023-01-07T10:14:32.320Z,25152.00
2023-01-07T10:15:32.261Z,10240.00
2023-01-07T10:16:32.104Z,9292.00
2023-01-07T10:17:32.140Z,9404.00
2023-01-07T10:18:31.951Z,9444.00
2023-01-07T10:19:32.144Z,9916.00
2023-01-07T10:20:31.940Z,10216.00
2023-01-07T10:21:32.046Z,10124.00
2023-01-07T10:22:31.940Z,11096.00
2023-01-07T10:23:32.084Z,24736.00
2023-01-07T10:24:31.937Z,60160.00
2023-01-07T10:25:31.997Z,72640.00
2023-01-07T10:26:32.498Z,77440.00
2023-01-07T10:27:31.931Z,75872.00
2023-01-07T10:28:31.840Z,77920.00
2023-01-07T10:29:32.071Z,81312.00
2023-01-07T10:30:31.813Z,77408.00
2023-01-07T10:31:32.085Z,73568.00
2023-01-07T10:32:32.058Z,79648.00
2023-01-07T10:33:31.835Z,90176.00
2023-01-07T10:34:31.751Z,87168.00
2023-01-07T10:35:31.937Z,90400.00
2023-01-07T10:36:31.873Z,84352.00
2023-01-07T10:37:31.705Z,64512.00
2023-01-07T10:38:31.888Z,53152.00
2023-01-07T10:39:32.582Z,67584.00
2023-01-07T10:40:31.967Z,71840.00
2023-01-07T10:41:31.641Z,62496.00
2023-01-07T10:42:31.819Z,63072.00
2023-01-07T10:43:31.917Z,66624.00
2023-01-07T10:44:31.815Z,63232.00
2023-01-07T10:45:32.179Z,74400.00
2023-01-07T10:46:31.730Z,67680.00
2023-01-07T10:47:31.589Z,77376.00
2023-01-07T10:48:31.727Z,93248.00
2023-01-07T10:49:31.558Z,94368.00
2023-01-07T10:50:31.750Z,89888.00
2023-01-07T10:51:31.594Z,83904.00
2023-01-07T10:52:31.667Z,73472.00
2023-01-07T10:53:31.575Z,70144.00
2023-01-07T10:54:31.670Z,71520.00
2023-01-07T10:55:31.487Z,81376.00
2023-01-07T10:56:31.634Z,84064.00
2023-01-07T10:57:31.524Z,87776.00
2023-01-07T10:58:31.639Z,91488.00
2023-01-07T10:59:31.443Z,86976.00
2023-01-07T11:00:31.670Z,85664.00
2023-01-07T11:01:31.632Z,87104.00
2023-01-07T11:02:31.871Z,87520.00
2023-01-07T11:03:31.530Z,90688.00
2023-01-07T11:04:31.648Z,93248.00
2023-01-07T11:05:31.768Z,80800.00
2023-01-07T11:06:31.569Z,53696.00
2023-01-07T11:07:31.461Z,46880.00
2023-01-07T11:08:31.590Z,66816.00
2023-01-07T11:09:31.357Z,52928.00
2023-01-07T11:10:31.557Z,40192.00
2023-01-07T11:11:31.343Z,36192.00
2023-01-07T11:12:31.557Z,58784.00
2023-01-07T11:13:31.291Z,63776.00
2023-01-07T11:14:31.525Z,51776.00
2023-01-07T11:15:31.940Z,57152.00
2023-01-07T11:16:31.857Z,62880.00
2023-01-07T11:17:31.635Z,52928.00
2023-01-07T11:18:31.811Z,57920.00
2023-01-07T11:19:31.759Z,34336.00
2023-01-07T11:20:31.341Z,27264.00
2023-01-07T11:21:42.860Z,51872.00
2023-01-07T11:22:31.161Z,70848.00
2023-01-07T11:23:31.662Z,73888.00
2023-01-07T11:24:31.135Z,57824.00
2023-01-07T11:25:31.289Z,48864.00
2023-01-07T11:26:31.139Z,60992.00
2023-01-07T11:27:31.439Z,66496.00
2023-01-07T11:28:31.165Z,54688.00
2023-01-07T11:29:31.103Z,60928.00
2023-01-07T11:30:31.311Z,70784.00
2023-01-07T11:31:31.098Z,68992.00
2023-01-07T11:32:31.153Z,84256.00
2023-01-07T11:34:03.295Z,94432.00
2023-01-07T11:34:31.207Z,92608.00
2023-01-07T11:35:31.391Z,94176.00
2023-01-07T11:36:31.038Z,95392.00
2023-01-07T11:37:30.976Z,96064.00
2023-01-07T11:38:31.059Z,95104.00
2023-01-07T11:39:30.975Z,95232.00
2023-01-07T11:40:31.197Z,94816.00
2023-01-07T11:41:30.935Z,94368.00
2023-01-07T11:42:32.123Z,92672.00
2023-01-07T11:43:31.015Z,88864.00
2023-01-07T11:44:30.996Z,52192.00
2023-01-07T11:45:30.916Z,16928.00
2023-01-07T11:46:31.099Z,14208.00
2023-01-07T11:47:30.875Z,13760.00
2023-01-07T11:48:31.251Z,13216.00
2023-01-07T11:49:31.049Z,14272.00
2023-01-07T11:50:30.784Z,13760.00
2023-01-07T11:51:30.859Z,12404.00
2023-01-07T11:52:31.038Z,11544.00
2023-01-07T11:53:30.887Z,10600.00
2023-01-07T11:54:30.731Z,10976.00
2023-01-07T11:55:30.980Z,11084.00
2023-01-07T11:56:30.955Z,10404.00
2023-01-07T11:57:30.893Z,9936.00
2023-01-07T11:58:31.405Z,9884.00
2023-01-07T11:59:30.822Z,11144.00
2023-01-07T12:00:30.653Z,11984.00
2023-01-07T12:01:30.823Z,13436.00
2023-01-07T12:02:30.660Z,13440.00
2023-01-07T12:03:30.837Z,13228.00
2023-01-07T12:04:30.603Z,14240.00
2023-01-07T12:05:31.906Z,21472.00
2023-01-07T12:06:30.602Z,56864.00
2023-01-07T12:07:30.765Z,74400.00
2023-01-07T12:08:30.560Z,78912.00
2023-01-07T12:09:30.703Z,82048.00
2023-01-07T12:10:30.553Z,85792.00
2023-01-07T12:11:30.702Z,84672.00
2023-01-07T12:12:31.125Z,81728.00
2023-01-07T12:13:30.993Z,77344.00
2023-01-07T12:14:30.522Z,42784.00
2023-01-07T12:15:30.651Z,13696.00
2023-01-07T12:16:30.483Z,14752.00
2023-01-07T12:17:30.690Z,32000.00
2023-01-07T12:18:30.694Z,42976.00
2023-01-07T12:19:30.691Z,57504.00
2023-01-07T12:20:30.410Z,61536.00
2023-01-07T12:21:30.562Z,43360.00
2023-01-07T12:22:30.385Z,52672.00
2023-01-07T12:23:30.526Z,72480.00
2023-01-07T12:24:30.772Z,74848.00
2023-01-07T12:25:33.625Z,68704.00
2023-01-07T12:26:30.336Z,59168.00
2023-01-07T12:27:30.509Z,60768.00
2023-01-07T12:28:30.369Z,65952.00
2023-01-07T12:29:30.831Z,71616.00
2023-01-07T12:30:30.699Z,78432.00
2023-01-07T12:31:30.773Z,56256.00
2023-01-07T12:32:30.255Z,51872.00
2023-01-07T12:33:30.515Z,64032.00
2023-01-07T12:34:30.371Z,75488.00
2023-01-07T12:35:30.813Z,78016.00
2023-01-07T12:36:30.353Z,72992.00
2023-01-07T12:37:30.618Z,75232.00
2023-01-07T12:38:30.716Z,66368.00
2023-01-07T12:39:30.495Z,63328.00
2023-01-07T12:40:30.399Z,72640.00
2023-01-07T12:41:30.197Z,79200.00
2023-01-07T12:42:30.281Z,81984.00
2023-01-07T12:43:30.175Z,77856.00
2023-01-07T12:44:30.368Z,83040.00
2023-01-07T12:45:30.185Z,10560.00